Time;durP1;ratioP1;P1;durP2;ratioP2;P2;SDS_P1;SDS_P2;PMS_P1;PMS_P2;Temp;Humidity;BMP_temperature;BMP_pressure;BME280_temperature;BME280_humidity;BME280_pressure;Samples;Min_cycle;Max_cycle;Signal;HPM_P1;HPM_P2
2022/04/17 00:06:12;;;;;;;1.85;0.90;;;9.50;95.10;;;;;;20758479;28;20045;-43
2022/04/17 00:16:15;;;;;;;2.47;0.90;;;9.50;94.90;;;;;;20759886;28;20480;-43
2022/04/17 00:26:19;;;;;;;1.92;0.90;;;9.30;95.10;;;;;;20767609;28;20617;-43
2022/04/17 00:36:20;;;;;;;1.92;0.85;;;9.10;96.20;;;;;;20757729;28;20106;-43
2022/04/17 00:46:21;;;;;;;3.47;1.20;;;9.00;96.30;;;;;;20757871;28;20248;-43
2022/04/17 00:56:24;;;;;;;2.47;1.00;;;8.90;95.50;;;;;;20765664;28;20493;-43
2022/04/17 01:06:26;;;;;;;3.83;1.30;;;8.90;96.40;;;;;;20773926;28;20037;-43
2022/04/17 01:16:27;;;;;;;2.45;1.30;;;8.80;96.70;;;;;;20772030;28;20046;-43
2022/04/17 01:36:49;;;;;;;3.70;1.70;;;8.60;96.20;;;;;;20761768;28;20032;-43
2022/04/17 01:46:50;;;;;;;2.88;1.27;;;8.50;96.50;;;;;;20761257;28;20053;-43
2022/04/17 01:56:52;;;;;;;3.97;1.30;;;8.50;96.20;;;;;;20761583;28;20048;-43
2022/04/17 02:06:53;;;;;;;4.68;2.33;;;8.60;96.20;;;;;;20760529;28;20029;-43
2022/04/17 02:16:54;;;;;;;5.30;1.70;;;8.50;95.90;;;;;;20754614;28;20156;-43
2022/04/17 02:26:55;;;;;;;3.97;1.52;;;8.50;95.30;;;;;;20754290;28;20068;-44
2022/04/17 05:00:40;;;;;;;3.70;1.95;;;7.60;96.10;;;;;;21012177;22;20545;-42
2022/04/17 05:10:42;;;;;;;6.13;2.45;;;7.60;96.60;;;;;;20919621;28;20041;-42
2022/04/17 05:20:43;;;;;;;4.40;1.95;;;7.60;97.30;;;;;;20914304;28;20036;-43
2022/04/17 05:30:45;;;;;;;2.53;1.50;;;7.50;96.50;;;;;;20909936;28;20045;-43
2022/04/17 05:40:50;;;;;;;3.13;1.85;;;7.60;96.50;;;;;;20854448;28;20045;-43
2022/04/17 05:50:53;;;;;;;3.28;1.38;;;7.80;96.90;;;;;;20821375;28;20141;-43
2022/04/17 06:00:55;;;;;;;3.10;1.50;;;8.20;96.40;;;;;;20842125;28;20056;-43
2022/04/17 06:10:57;;;;;;;3.50;1.85;;;8.40;95.70;;;;;;20838410;28;20041;-43
2022/04/17 06:20:59;;;;;;;3.08;1.52;;;8.60;95.60;;;;;;20831549;28;20038;-43
2022/04/17 06:31:00;;;;;;;4.95;1.80;;;8.70;95.60;;;;;;20824181;28;20057;-42
2022/04/17 06:41:01;;;;;;;3.28;1.40;;;8.90;95.00;;;;;;20821413;28;20487;-42
2022/04/17 07:00:10;;;;;;;4.50;1.95;;;9.30;94.10;;;;;;20986644;28;20172;-45
2022/04/17 07:10:11;;;;;;;3.28;1.67;;;9.40;94.90;;;;;;20916428;28;20025;-44
2022/04/17 07:20:12;;;;;;;3.80;1.60;;;9.60;94.90;;;;;;20896061;28;20495;-45
2022/04/17 07:30:22;;;;;;;12.20;2.10;;;9.80;94.40;;;;;;20911911;28;20029;-45
2022/04/17 07:40:26;;;;;;;4.43;1.45;;;10.10;94.20;;;;;;20897674;28;20049;-45
2022/04/17 07:50:31;;;;;;;2.83;1.50;;;10.20;94.70;;;;;;20884847;28;20056;-45
2022/04/17 08:00:45;;;;;;;4.60;2.45;;;10.80;94.40;;;;;;20882143;28;20399;-45
2022/04/17 08:10:47;;;;;;;3.20;1.38;;;11.00;94.20;;;;;;20853931;28;20044;-45
2022/04/17 08:20:48;;;;;;;2.70;1.50;;;11.40;94.30;;;;;;20874397;28;20029;-45
2022/04/17 08:30:50;;;;;;;3.13;1.60;;;11.40;93.60;;;;;;20872408;28;20443;-45
2022/04/17 08:40:57;;;;;;;2.60;1.10;;;11.60;93.30;;;;;;20867078;28;20120;-45
2022/04/17 08:51:00;;;;;;;4.13;1.73;;;12.00;92.10;;;;;;20865006;28;20033;-45
2022/04/17 09:01:01;;;;;;;3.65;1.50;;;12.30;93.00;;;;;;20874570;28;20056;-45
2022/04/17 09:11:02;;;;;;;3.05;1.25;;;12.80;92.60;;;;;;20821548;28;20568;-45
2022/04/17 09:21:03;;;;;;;2.85;1.30;;;13.30;91.30;;;;;;20772577;28;20130;-45
2022/04/17 09:31:13;;;;;;;3.53;1.50;;;13.70;91.40;;;;;;20775724;28;20033;-45
2022/04/17 09:41:14;;;;;;;2.15;1.13;;;13.80;91.00;;;;;;20776908;28;20037;-45
2022/04/17 09:51:27;;;;;;;3.05;1.50;;;14.20;91.20;;;;;;20775522;28;20477;-45
2022/04/17 10:01:28;;;;;;;1.60;1.02;;;14.70;91.40;;;;;;20773351;28;20045;-45
2022/04/17 10:11:29;;;;;;;4.10;1.40;;;15.10;91.00;;;;;;20764433;28;20024;-45
2022/04/17 10:21:34;;;;;;;2.35;1.30;;;15.70;88.90;;;;;;20768972;28;20040;-45
2022/04/17 10:31:57;;;;;;;2.90;1.20;;;16.00;85.70;;;;;;20766343;28;20237;-45
2022/04/17 10:41:58;;;;;;;2.38;1.10;;;16.00;84.80;;;;;;20767704;28;20032;-45
2022/04/17 10:51:59;;;;;;;3.38;1.83;;;16.10;85.40;;;;;;20834359;28;20037;-44
2022/04/17 11:02:05;;;;;;;1.77;0.82;;;16.20;87.20;;;;;;20861937;28;20377;-45
2022/04/17 11:12:08;;;;;;;4.05;1.70;;;16.90;84.40;;;;;;20854824;28;20068;-45
2022/04/17 11:22:09;;;;;;;2.92;1.35;;;17.10;83.00;;;;;;20860984;28;20028;-45
2022/04/17 11:32:19;;;;;;;3.38;1.50;;;17.70;79.40;;;;;;20855027;28;20527;-45
2022/04/17 11:42:20;;;;;;;2.85;1.00;;;18.30;81.40;;;;;;20867093;28;20029;-45
2022/04/17 11:52:23;;;;;;;2.83;1.00;;;18.60;79.60;;;;;;20875047;28;20045;-45
2022/04/17 12:02:27;;;;;;;2.13;0.80;;;19.00;84.60;;;;;;20875735;28;20045;-45
2022/04/17 12:12:34;;;;;;;3.30;1.05;;;19.10;71.10;;;;;;20874562;28;20518;-45
2022/04/17 12:22:39;;;;;;;3.63;1.95;;;19.70;77.70;;;;;;20873544;28;20048;-45
2022/04/17 12:32:44;;;;;;;2.40;0.77;;;19.40;69.00;;;;;;20866051;28;20029;-45
2022/04/17 12:42:46;;;;;;;3.08;1.08;;;19.60;70.10;;;;;;20871915;28;20527;-45
2022/04/17 12:52:55;;;;;;;4.32;1.20;;;19.80;73.80;;;;;;20865694;28;20079;-45
2022/04/17 13:03:16;;;;;;;2.85;1.05;;;19.90;70.20;;;;;;20862728;28;20103;-46
2022/04/17 13:13:17;;;;;;;2.05;0.95;;;20.10;71.30;;;;;;20867109;28;20029;-45
2022/04/17 13:23:18;;;;;;;1.88;0.63;;;20.40;70.30;;;;;;20873442;28;20037;-45
2022/04/17 13:33:19;;;;;;;2.20;1.00;;;20.40;69.60;;;;;;20859569;28;20021;-45
2022/04/17 13:43:21;;;;;;;1.80;0.73;;;21.20;67.70;;;;;;20864764;28;20029;-45
2022/04/17 13:53:22;;;;;;;5.05;0.50;;;21.90;70.80;;;;;;20860723;28;20056;-46
2022/04/17 14:03:23;;;;;;;1.17;0.60;;;21.20;66.70;;;;;;20852514;28;20387;-45
2022/04/17 14:13:25;;;;;;;1.50;0.75;;;21.10;68.70;;;;;;20855628;28;20381;-43
2022/04/17 14:23:26;;;;;;;4.47;1.70;;;19.70;65.90;;;;;;20862675;28;20033;-45
2022/04/17 14:33:27;;;;;;;2.47;0.90;;;19.40;69.50;;;;;;20857179;28;20451;-45
2022/04/17 14:43:28;;;;;;;2.85;1.20;;;19.60;65.20;;;;;;20858867;28;20029;-45
2022/04/17 14:53:30;;;;;;;2.08;0.63;;;19.50;69.70;;;;;;20859069;28;20045;-45
2022/04/17 15:03:33;;;;;;;2.42;0.93;;;19.40;69.80;;;;;;20863304;28;20480;-45
2022/04/17 15:13:34;;;;;;;1.55;0.90;;;19.50;68.90;;;;;;20862769;28;20073;-43
2022/04/17 15:23:37;;;;;;;2.42;1.00;;;19.50;68.10;;;;;;20877165;28;20045;-43
2022/04/17 15:33:40;;;;;;;6.32;1.10;;;19.30;67.90;;;;;;20869105;28;20299;-43
2022/04/17 15:54:01;;;;;;;3.65;1.60;;;19.10;68.90;;;;;;20871642;28;20330;-45
2022/04/17 16:04:03;;;;;;;2.88;1.50;;;18.80;69.80;;;;;;20868602;28;20036;-45
2022/04/17 16:14:04;;;;;;;5.75;1.80;;;18.70;70.40;;;;;;20859131;28;20037;-45
2022/04/17 16:24:06;;;;;;;2.40;0.82;;;18.70;68.70;;;;;;20867682;28;20480;-45
2022/04/17 16:34:07;;;;;;;3.58;1.35;;;18.50;68.40;;;;;;20863598;28;20045;-45
2022/04/17 16:44:08;;;;;;;2.70;0.85;;;18.40;69.40;;;;;;20858211;28;20036;-45
2022/04/17 16:54:09;;;;;;;2.03;1.30;;;18.50;66.70;;;;;;20863401;28;20037;-45
2022/04/17 17:04:10;;;;;;;2.17;0.95;;;18.20;67.50;;;;;;20849886;28;20037;-45
2022/04/17 17:14:11;;;;;;;1.73;0.75;;;18.10;69.20;;;;;;20857599;28;20032;-45
2022/04/17 17:24:12;;;;;;;1.60;0.82;;;18.00;69.00;;;;;;20849144;28;20033;-45
2022/04/17 17:34:14;;;;;;;2.40;0.90;;;17.80;67.60;;;;;;20849726;28;20036;-45
2022/04/17 17:44:15;;;;;;;1.40;0.90;;;17.60;69.20;;;;;;20858378;28;20045;-45
2022/04/17 17:54:16;;;;;;;1.73;0.77;;;17.60;69.10;;;;;;20856454;28;20049;-45
2022/04/17 18:04:17;;;;;;;2.55;0.80;;;17.50;68.10;;;;;;20859232;28;20069;-45
2022/04/17 18:14:30;;;;;;;3.17;1.02;;;17.50;69.30;;;;;;20856094;28;20476;-45
2022/04/17 18:24:31;;;;;;;1.10;0.47;;;17.30;70.80;;;;;;20849097;28;20064;-45
2022/04/17 18:34:34;;;;;;;2.08;1.13;;;17.10;72.20;;;;;;20849477;28;20038;-45
2022/04/17 18:44:35;;;;;;;1.35;0.65;;;16.90;72.90;;;;;;20850504;28;20443;-45
2022/04/17 18:54:36;;;;;;;1.88;0.75;;;16.60;73.00;;;;;;20928185;28;20415;-45
2022/04/17 19:04:38;;;;;;;2.72;0.70;;;16.40;71.70;;;;;;21008775;28;20035;-45
2022/04/17 19:14:40;;;;;;;2.42;1.02;;;16.10;73.40;;;;;;21012297;28;20040;-45
2022/04/17 19:24:41;;;;;;;1.80;0.50;;;16.00;73.80;;;;;;21013442;28;20430;-45
2022/04/17 19:45:03;;;;;;;2.38;0.80;;;15.50;74.80;;;;;;21014110;28;20039;-45
2022/04/17 19:55:04;;;;;;;2.88;0.93;;;15.30;78.00;;;;;;21008706;28;20059;-45
2022/04/17 20:05:06;;;;;;;4.13;1.10;;;15.10;79.20;;;;;;21020396;28;20612;-45
2022/04/17 20:15:07;;;;;;;1.90;0.98;;;14.70;77.70;;;;;;21026332;28;20434;-45
2022/04/17 20:25:08;;;;;;;3.20;1.52;;;14.70;75.80;;;;;;21025109;28;20041;-45
2022/04/17 20:35:10;;;;;;;2.17;0.90;;;14.50;75.50;;;;;;21021890;28;20056;-45
2022/04/17 20:55:31;;;;;;;1.98;0.90;;;14.20;76.50;;;;;;21017861;28;20056;-45
2022/04/17 21:05:32;;;;;;;2.03;1.13;;;14.00;76.20;;;;;;21018639;28;20024;-44
2022/04/17 21:15:34;;;;;;;1.73;0.70;;;13.90;77.10;;;;;;21019194;28;20414;-44
2022/04/17 21:25:36;;;;;;;3.05;1.05;;;13.90;75.10;;;;;;21016714;28;20041;-43
2022/04/17 21:35:37;;;;;;;4.75;1.17;;;13.80;75.00;;;;;;21012457;28;20036;-43
2022/04/17 21:45:38;;;;;;;2.00;1.20;;;13.80;75.10;;;;;;21012782;28;20047;-43
2022/04/17 21:55:39;;;;;;;2.22;1.25;;;13.70;75.60;;;;;;21008426;28;20093;-43
2022/04/17 22:05:40;;;;;;;3.63;1.80;;;13.50;77.20;;;;;;21007439;28;20037;-43
2022/04/17 22:15:41;;;;;;;2.53;1.42;;;13.30;76.50;;;;;;21005968;28;20027;-43
2022/04/17 22:25:43;;;;;;;3.35;1.38;;;13.30;77.30;;;;;;21004235;28;20028;-43
2022/04/17 22:35:45;;;;;;;6.65;1.23;;;13.10;77.50;;;;;;21001023;28;20032;-43
2022/04/17 22:45:46;;;;;;;3.42;1.65;;;12.90;77.80;;;;;;20997707;28;20031;-43
2022/04/17 22:55:47;;;;;;;3.95;2.00;;;12.60;77.50;;;;;;20993408;28;20047;-43
2022/04/17 23:05:48;;;;;;;4.40;1.65;;;12.40;83.90;;;;;;20994338;28;20041;-43
2022/04/17 23:15:49;;;;;;;3.30;1.90;;;12.30;82.10;;;;;;20988397;28;20032;-43
2022/04/17 23:25:51;;;;;;;3.67;1.90;;;12.10;80.80;;;;;;20988581;28;20041;-43
2022/04/17 23:35:53;;;;;;;5.78;2.47;;;12.00;80.10;;;;;;20969955;28;20047;-43
2022/04/17 23:45:54;;;;;;;4.18;2.67;;;11.90;81.60;;;;;;20991828;28;20067;-43
2022/04/17 23:55:56;;;;;;;5.50;2.75;;;12.00;80.80;;;;;;21000323;28;20221;-43
